sensor_id;sensor_type;location;lat;lon;timestamp;temperature;humidity
15390;DHT22;7793;40.902;14.190;2022-09-25T12:39:49;23.10;63.70
15390;DHT22;7793;40.902;14.190;2022-09-25T12:50:19;22.80;66.10
15390;DHT22;7793;40.902;14.190;2022-09-25T12:52:47;22.80;66.10
15390;DHT22;7793;40.902;14.190;2022-09-25T12:55:26;22.80;66.30
15390;DHT22;7793;40.902;14.190;2022-09-25T12:57:57;22.80;66.30
15390;DHT22;7793;40.902;14.190;2022-09-25T13:00:21;22.80;66.20
15390;DHT22;7793;40.902;14.190;2022-09-25T13:07:41;22.70;65.90
15390;DHT22;7793;40.902;14.190;2022-09-25T13:12:42;22.70;65.80
15390;DHT22;7793;40.902;14.190;2022-09-25T13:17:24;22.70;65.20
15390;DHT22;7793;40.902;14.190;2022-09-25T13:19:45;22.80;64.30
15390;DHT22;7793;40.902;14.190;2022-09-25T13:22:07;22.90;63.50
15390;DHT22;7793;40.902;14.190;2022-09-25T13:24:31;23.10;62.60
15390;DHT22;7793;40.902;14.190;2022-09-25T13:26:59;23.20;62.10
15390;DHT22;7793;40.902;14.190;2022-09-25T13:29:34;23.30;61.90
15390;DHT22;7793;40.902;14.190;2022-09-25T13:32:05;23.30;61.60
15390;DHT22;7793;40.902;14.190;2022-09-25T13:34:27;23.40;61.40
15390;DHT22;7793;40.902;14.190;2022-09-25T13:36:54;23.40;61.30
15390;DHT22;7793;40.902;14.190;2022-09-25T13:41:56;23.40;61.20
15390;DHT22;7793;40.902;14.190;2022-09-25T13:44:37;23.40;61.20
15390;DHT22;7793;40.902;14.190;2022-09-25T13:52:30;23.40;61.00
15390;DHT22;7793;40.902;14.190;2022-09-25T13:55:02;23.40;60.90
15390;DHT22;7793;40.902;14.190;2022-09-25T13:58:29;23.40;60.70
15390;DHT22;7793;40.902;14.190;2022-09-25T14:00:21;23.40;60.70
15390;DHT22;7793;40.902;14.190;2022-09-25T14:02:43;23.50;60.80
15390;DHT22;7793;40.902;14.190;2022-09-25T14:05:06;23.40;60.60
15390;DHT22;7793;40.902;14.190;2022-09-25T14:07:27;23.40;60.60
15390;DHT22;7793;40.902;14.190;2022-09-25T14:09:53;23.50;60.60
15390;DHT22;7793;40.902;14.190;2022-09-25T14:12:24;23.50;60.40
15390;DHT22;7793;40.902;14.190;2022-09-25T14:14:56;23.40;60.40
15390;DHT22;7793;40.902;14.190;2022-09-25T14:17:18;23.50;60.40
15390;DHT22;7793;40.902;14.190;2022-09-25T14:19:41;23.50;60.40
15390;DHT22;7793;40.902;14.190;2022-09-25T14:22:03;23.50;60.80
15390;DHT22;7793;40.902;14.190;2022-09-25T14:24:26;23.30;61.30
15390;DHT22;7793;40.902;14.190;2022-09-25T14:26:50;23.30;61.10
15390;DHT22;7793;40.902;14.190;2022-09-25T14:29:16;23.30;60.70
15390;DHT22;7793;40.902;14.190;2022-09-25T14:31:40;23.40;60.80
15390;DHT22;7793;40.902;14.190;2022-09-25T14:39:00;23.40;60.30
15390;DHT22;7793;40.902;14.190;2022-09-25T14:46:24;23.40;60.10
15390;DHT22;7793;40.902;14.190;2022-09-25T14:51:23;23.40;60.30
15390;DHT22;7793;40.902;14.190;2022-09-25T14:53:48;23.40;60.30
15390;DHT22;7793;40.902;14.190;2022-09-25T14:56:13;23.40;60.20
15390;DHT22;7793;40.902;14.190;2022-09-25T14:58:35;23.40;60.10
15390;DHT22;7793;40.902;14.190;2022-09-25T15:00:58;23.40;60.00
15390;DHT22;7793;40.902;14.190;2022-09-25T15:03:22;23.40;60.00
15390;DHT22;7793;40.902;14.190;2022-09-25T15:05:45;23.40;60.10
15390;DHT22;7793;40.902;14.190;2022-09-25T15:08:21;23.40;60.10
15390;DHT22;7793;40.902;14.190;2022-09-25T15:10:43;23.40;60.20
15390;DHT22;7793;40.902;14.190;2022-09-25T15:13:14;23.40;60.30
15390;DHT22;7793;40.902;14.190;2022-09-25T15:15:36;23.30;60.50
15390;DHT22;7793;40.902;14.190;2022-09-25T15:17:58;23.40;60.20
15390;DHT22;7793;40.902;14.190;2022-09-25T15:20:23;23.40;59.90
15390;DHT22;7793;40.902;14.190;2022-09-25T15:22:51;23.40;59.90
15390;DHT22;7793;40.902;14.190;2022-09-25T15:25:16;23.40;59.90
15390;DHT22;7793;40.902;14.190;2022-09-25T15:27:41;23.40;59.90
15390;DHT22;7793;40.902;14.190;2022-09-25T15:30:02;23.40;59.80
15390;DHT22;7793;40.902;14.190;2022-09-25T15:32:25;23.50;59.90
15390;DHT22;7793;40.902;14.190;2022-09-25T15:34:49;23.50;59.80
15390;DHT22;7793;40.902;14.190;2022-09-25T15:37:20;23.40;59.80
15390;DHT22;7793;40.902;14.190;2022-09-25T15:39:46;23.50;59.80
15390;DHT22;7793;40.902;14.190;2022-09-25T15:42:09;23.50;59.80
15390;DHT22;7793;40.902;14.190;2022-09-25T15:44:31;23.50;59.70
15390;DHT22;7793;40.902;14.190;2022-09-25T15:46:53;23.50;59.70
15390;DHT22;7793;40.902;14.190;2022-09-25T15:49:15;23.50;59.80
15390;DHT22;7793;40.902;14.190;2022-09-25T15:51:38;23.50;59.80
15390;DHT22;7793;40.902;14.190;2022-09-25T15:56:50;23.50;59.80
15390;DHT22;7793;40.902;14.190;2022-09-25T15:59:17;23.50;59.90
15390;DHT22;7793;40.902;14.190;2022-09-25T16:01:39;23.50;59.80
15390;DHT22;7793;40.902;14.190;2022-09-25T16:04:21;23.50;59.70
15390;DHT22;7793;40.902;14.190;2022-09-25T16:07:13;23.50;59.70
15390;DHT22;7793;40.902;14.190;2022-09-25T16:09:39;23.50;59.70
15390;DHT22;7793;40.902;14.190;2022-09-25T16:12:10;23.50;59.70
15390;DHT22;7793;40.902;14.190;2022-09-25T16:14:31;23.50;59.70
15390;DHT22;7793;40.902;14.190;2022-09-25T16:16:52;23.50;59.70
15390;DHT22;7793;40.902;14.190;2022-09-25T16:19:47;23.50;59.60
15390;DHT22;7793;40.902;14.190;2022-09-25T16:22:12;23.50;59.60
15390;DHT22;7793;40.902;14.190;2022-09-25T16:24:33;23.50;59.50
15390;DHT22;7793;40.902;14.190;2022-09-25T16:26:56;23.50;59.50
15390;DHT22;7793;40.902;14.190;2022-09-25T16:29:19;23.50;59.60
15390;DHT22;7793;40.902;14.190;2022-09-25T16:31:41;23.50;59.50
15390;DHT22;7793;40.902;14.190;2022-09-25T16:34:03;23.50;59.50
15390;DHT22;7793;40.902;14.190;2022-09-25T16:36:26;23.50;59.60
15390;DHT22;7793;40.902;14.190;2022-09-25T16:41:27;23.50;59.60
15390;DHT22;7793;40.902;14.190;2022-09-25T16:46:33;23.50;59.50
15390;DHT22;7793;40.902;14.190;2022-09-25T16:48:58;23.50;59.50
15390;DHT22;7793;40.902;14.190;2022-09-25T16:51:20;23.50;60.30
15390;DHT22;7793;40.902;14.190;2022-09-25T16:53:42;23.10;62.60
15390;DHT22;7793;40.902;14.190;2022-09-25T16:56:04;22.80;63.20
15390;DHT22;7793;40.902;14.190;2022-09-25T16:58:25;22.50;64.30
15390;DHT22;7793;40.902;14.190;2022-09-25T17:00:46;22.30;65.80
15390;DHT22;7793;40.902;14.190;2022-09-25T17:03:08;22.30;66.40
15390;DHT22;7793;40.902;14.190;2022-09-25T17:05:29;22.30;66.30
15390;DHT22;7793;40.902;14.190;2022-09-25T17:07:51;22.60;64.60
15390;DHT22;7793;40.902;14.190;2022-09-25T17:10:13;22.80;63.60
15390;DHT22;7793;40.902;14.190;2022-09-25T17:12:35;22.90;63.00
15390;DHT22;7793;40.902;14.190;2022-09-25T17:14:57;22.90;62.70
15390;DHT22;7793;40.902;14.190;2022-09-25T17:17:19;22.90;62.60
15390;DHT22;7793;40.902;14.190;2022-09-25T17:19:41;22.90;62.70
15390;DHT22;7793;40.902;14.190;2022-09-25T17:22:02;23.00;62.40
15390;DHT22;7793;40.902;14.190;2022-09-25T17:24:24;23.00;62.20
15390;DHT22;7793;40.902;14.190;2022-09-25T17:26:46;22.90;62.70
15390;DHT22;7793;40.902;14.190;2022-09-25T17:29:07;22.80;63.00
15390;DHT22;7793;40.902;14.190;2022-09-25T17:31:28;22.80;63.00
15390;DHT22;7793;40.902;14.190;2022-09-25T17:33:49;22.80;63.00
15390;DHT22;7793;40.902;14.190;2022-09-25T17:36:11;22.90;63.10
15390;DHT22;7793;40.902;14.190;2022-09-25T17:38:32;22.90;62.70
15390;DHT22;7793;40.902;14.190;2022-09-25T17:40:54;23.00;62.10
15390;DHT22;7793;40.902;14.190;2022-09-25T17:43:23;22.90;62.30
15390;DHT22;7793;40.902;14.190;2022-09-25T17:45:45;22.90;62.40
15390;DHT22;7793;40.902;14.190;2022-09-25T17:48:08;22.90;62.70
15390;DHT22;7793;40.902;14.190;2022-09-25T17:50:29;22.80;62.60
15390;DHT22;7793;40.902;14.190;2022-09-25T17:52:55;22.80;62.80
15390;DHT22;7793;40.902;14.190;2022-09-25T17:55:17;22.80;62.70
15390;DHT22;7793;40.902;14.190;2022-09-25T17:57:38;22.80;62.70
15390;DHT22;7793;40.902;14.190;2022-09-25T17:59:59;22.80;62.70
15390;DHT22;7793;40.902;14.190;2022-09-25T18:02:20;22.80;62.70
15390;DHT22;7793;40.902;14.190;2022-09-25T18:04:41;22.80;62.70
15390;DHT22;7793;40.902;14.190;2022-09-25T18:07:04;22.90;62.70
15390;DHT22;7793;40.902;14.190;2022-09-25T18:09:26;22.80;62.90
15390;DHT22;7793;40.902;14.190;2022-09-25T18:11:47;22.80;63.20
15390;DHT22;7793;40.902;14.190;2022-09-25T18:14:09;22.80;63.50
15390;DHT22;7793;40.902;14.190;2022-09-25T18:16:31;22.80;63.20
15390;DHT22;7793;40.902;14.190;2022-09-25T18:18:52;22.80;62.80
15390;DHT22;7793;40.902;14.190;2022-09-25T18:21:32;22.80;62.80
15390;DHT22;7793;40.902;14.190;2022-09-25T18:24:12;22.80;62.50
15390;DHT22;7793;40.902;14.190;2022-09-25T18:26:33;22.80;62.70
15390;DHT22;7793;40.902;14.190;2022-09-25T18:28:54;22.80;62.70
15390;DHT22;7793;40.902;14.190;2022-09-25T18:31:15;22.80;62.30
15390;DHT22;7793;40.902;14.190;2022-09-25T18:33:36;22.80;63.10
15390;DHT22;7793;40.902;14.190;2022-09-25T18:35:57;22.80;63.30
15390;DHT22;7793;40.902;14.190;2022-09-25T18:38:20;22.80;63.20
15390;DHT22;7793;40.902;14.190;2022-09-25T18:40:41;22.80;62.70
15390;DHT22;7793;40.902;14.190;2022-09-25T18:43:02;22.70;63.30
15390;DHT22;7793;40.902;14.190;2022-09-25T18:45:23;22.70;63.30
15390;DHT22;7793;40.902;14.190;2022-09-25T18:47:44;22.80;63.20
15390;DHT22;7793;40.902;14.190;2022-09-25T18:50:07;22.80;62.90
15390;DHT22;7793;40.902;14.190;2022-09-25T18:52:29;22.80;63.60
15390;DHT22;7793;40.902;14.190;2022-09-25T18:54:54;22.70;63.80
15390;DHT22;7793;40.902;14.190;2022-09-25T18:57:15;22.70;63.60
15390;DHT22;7793;40.902;14.190;2022-09-25T18:59:37;22.70;63.70
15390;DHT22;7793;40.902;14.190;2022-09-25T19:01:59;22.70;63.70
15390;DHT22;7793;40.902;14.190;2022-09-25T19:04:20;22.70;63.70
15390;DHT22;7793;40.902;14.190;2022-09-25T19:06:41;22.70;63.80
15390;DHT22;7793;40.902;14.190;2022-09-25T19:09:02;22.70;63.80
15390;DHT22;7793;40.902;14.190;2022-09-25T19:11:25;22.70;63.90
15390;DHT22;7793;40.902;14.190;2022-09-25T19:13:47;22.70;63.80
15390;DHT22;7793;40.902;14.190;2022-09-25T19:16:09;22.70;64.10
15390;DHT22;7793;40.902;14.190;2022-09-25T19:18:31;22.70;63.80
15390;DHT22;7793;40.902;14.190;2022-09-25T19:20:52;22.70;63.60
15390;DHT22;7793;40.902;14.190;2022-09-25T19:23:14;22.80;63.50
15390;DHT22;7793;40.902;14.190;2022-09-25T19:25:35;22.80;63.10
15390;DHT22;7793;40.902;14.190;2022-09-25T19:27:58;22.90;63.10
15390;DHT22;7793;40.902;14.190;2022-09-25T19:30:19;22.90;62.80
15390;DHT22;7793;40.902;14.190;2022-09-25T19:32:40;22.90;62.80
15390;DHT22;7793;40.902;14.190;2022-09-25T19:35:01;22.90;63.00
15390;DHT22;7793;40.902;14.190;2022-09-25T19:37:22;22.80;63.10
15390;DHT22;7793;40.902;14.190;2022-09-25T19:39:47;22.80;63.20
15390;DHT22;7793;40.902;14.190;2022-09-25T19:42:27;22.80;63.20
15390;DHT22;7793;40.902;14.190;2022-09-25T19:44:53;22.80;63.20
15390;DHT22;7793;40.902;14.190;2022-09-25T19:47:19;22.80;63.30
15390;DHT22;7793;40.902;14.190;2022-09-25T19:49:41;22.80;63.30
15390;DHT22;7793;40.902;14.190;2022-09-25T19:52:02;22.80;63.30
15390;DHT22;7793;40.902;14.190;2022-09-25T19:54:23;22.80;63.20
15390;DHT22;7793;40.902;14.190;2022-09-25T19:56:44;22.80;63.20
15390;DHT22;7793;40.902;14.190;2022-09-25T19:59:06;22.80;63.30
15390;DHT22;7793;40.902;14.190;2022-09-25T20:01:28;22.80;63.30
15390;DHT22;7793;40.902;14.190;2022-09-25T20:03:50;22.80;63.30
15390;DHT22;7793;40.902;14.190;2022-09-25T20:06:11;22.80;63.20
15390;DHT22;7793;40.902;14.190;2022-09-25T20:08:33;22.80;63.30
15390;DHT22;7793;40.902;14.190;2022-09-25T20:10:54;22.80;63.30
15390;DHT22;7793;40.902;14.190;2022-09-25T20:13:15;22.80;63.20
15390;DHT22;7793;40.902;14.190;2022-09-25T20:15:37;22.80;63.30
15390;DHT22;7793;40.902;14.190;2022-09-25T20:17:58;22.80;63.30
15390;DHT22;7793;40.902;14.190;2022-09-25T20:20:19;22.80;63.30
15390;DHT22;7793;40.902;14.190;2022-09-25T20:22:44;22.80;63.30
15390;DHT22;7793;40.902;14.190;2022-09-25T20:25:06;22.80;63.30
15390;DHT22;7793;40.902;14.190;2022-09-25T20:27:27;22.80;63.20
15390;DHT22;7793;40.902;14.190;2022-09-25T20:29:49;22.80;63.20
15390;DHT22;7793;40.902;14.190;2022-09-25T20:32:10;22.80;63.20
15390;DHT22;7793;40.902;14.190;2022-09-25T20:34:31;22.80;63.20
15390;DHT22;7793;40.902;14.190;2022-09-25T20:36:52;22.80;63.10
15390;DHT22;7793;40.902;14.190;2022-09-25T20:39:13;22.80;63.20
15390;DHT22;7793;40.902;14.190;2022-09-25T20:41:41;22.80;63.20
15390;DHT22;7793;40.902;14.190;2022-09-25T20:44:04;22.80;63.30
15390;DHT22;7793;40.902;14.190;2022-09-25T20:46:26;22.80;63.30
15390;DHT22;7793;40.902;14.190;2022-09-25T20:48:47;22.80;63.20
15390;DHT22;7793;40.902;14.190;2022-09-25T20:51:15;22.80;63.20
15390;DHT22;7793;40.902;14.190;2022-09-25T20:53:36;22.80;63.30
15390;DHT22;7793;40.902;14.190;2022-09-25T20:56:32;22.80;63.50
15390;DHT22;7793;40.902;14.190;2022-09-25T20:58:46;22.80;63.20
15390;DHT22;7793;40.902;14.190;2022-09-25T21:01:14;22.80;63.30
15390;DHT22;7793;40.902;14.190;2022-09-25T21:03:36;22.70;63.30
15390;DHT22;7793;40.902;14.190;2022-09-25T21:06:05;22.80;63.50
15390;DHT22;7793;40.902;14.190;2022-09-25T21:08:28;22.70;63.30
15390;DHT22;7793;40.902;14.190;2022-09-25T21:10:49;22.70;63.20
15390;DHT22;7793;40.902;14.190;2022-09-25T21:13:10;22.80;63.30
15390;DHT22;7793;40.902;14.190;2022-09-25T21:15:31;22.70;63.40
15390;DHT22;7793;40.902;14.190;2022-09-25T21:17:53;22.70;63.50
15390;DHT22;7793;40.902;14.190;2022-09-25T21:20:14;22.70;63.30
15390;DHT22;7793;40.902;14.190;2022-09-25T21:22:35;22.70;63.30
15390;DHT22;7793;40.902;14.190;2022-09-25T21:24:57;22.80;63.50
15390;DHT22;7793;40.902;14.190;2022-09-25T21:27:20;22.70;63.50
15390;DHT22;7793;40.902;14.190;2022-09-25T21:29:42;22.70;63.50
15390;DHT22;7793;40.902;14.190;2022-09-25T21:32:04;22.70;63.50
15390;DHT22;7793;40.902;14.190;2022-09-25T21:34:25;22.70;63.50
15390;DHT22;7793;40.902;14.190;2022-09-25T21:36:48;22.70;63.60
15390;DHT22;7793;40.902;14.190;2022-09-25T21:39:09;22.70;63.60
15390;DHT22;7793;40.902;14.190;2022-09-25T21:41:30;22.70;64.10
15390;DHT22;7793;40.902;14.190;2022-09-25T21:43:52;22.70;65.50
15390;DHT22;7793;40.902;14.190;2022-09-25T21:46:15;22.70;65.70
15390;DHT22;7793;40.902;14.190;2022-09-25T21:48:38;22.70;65.70
15390;DHT22;7793;40.902;14.190;2022-09-25T21:51:00;22.70;65.30
15390;DHT22;7793;40.902;14.190;2022-09-25T21:53:22;22.70;65.00
15390;DHT22;7793;40.902;14.190;2022-09-25T21:55:44;22.70;64.80
15390;DHT22;7793;40.902;14.190;2022-09-25T21:58:05;22.70;64.70
15390;DHT22;7793;40.902;14.190;2022-09-25T22:00:26;22.70;64.60
15390;DHT22;7793;40.902;14.190;2022-09-25T22:02:47;22.70;64.70
15390;DHT22;7793;40.902;14.190;2022-09-25T22:05:10;22.70;64.50
15390;DHT22;7793;40.902;14.190;2022-09-25T22:07:34;22.70;64.60
15390;DHT22;7793;40.902;14.190;2022-09-25T22:09:55;22.70;64.60
15390;DHT22;7793;40.902;14.190;2022-09-25T22:12:16;22.70;64.70
15390;DHT22;7793;40.902;14.190;2022-09-25T22:14:37;22.70;64.70
15390;DHT22;7793;40.902;14.190;2022-09-25T22:16:59;22.70;64.80
15390;DHT22;7793;40.902;14.190;2022-09-25T22:19:25;22.70;64.70
15390;DHT22;7793;40.902;14.190;2022-09-25T22:21:47;22.70;65.00
15390;DHT22;7793;40.902;14.190;2022-09-25T22:24:08;22.70;64.70
15390;DHT22;7793;40.902;14.190;2022-09-25T22:26:29;22.70;64.80
15390;DHT22;7793;40.902;14.190;2022-09-25T22:28:51;22.70;64.70
15390;DHT22;7793;40.902;14.190;2022-09-25T22:31:20;22.70;64.90
